Time;durP1;ratioP1;P1;durP2;ratioP2;P2;SDS_P1;SDS_P2;PMS_P1;PMS_P2;Temp;Humidity;BMP_temperature;BMP_pressure;BME280_temperature;BME280_humidity;BME280_pressure;Samples;Min_cycle;Max_cycle;Signal;HPM_P1;HPM_P2
2020/12/21 00:00:34;;;;;;;1.40;0.73;;;7.70;99.90;;;;;;4918741;29;20265;-75
2020/12/21 00:03:00;;;;;;;4.83;1.07;;;7.70;99.90;;;;;;4918465;29;20210;-76
2020/12/21 00:05:28;;;;;;;3.00;0.90;;;7.70;99.90;;;;;;4918603;29;20220;-75
2020/12/21 00:07:54;;;;;;;2.03;1.00;;;7.60;99.90;;;;;;4918101;29;20236;-75
2020/12/21 00:10:20;;;;;;;1.20;0.67;;;7.70;99.90;;;;;;4918370;29;20221;-77
2020/12/21 00:12:48;;;;;;;3.30;0.80;;;7.60;99.90;;;;;;4918144;29;20573;-77
2020/12/21 00:15:14;;;;;;;3.17;0.90;;;7.60;99.90;;;;;;4918395;29;20248;-77
2020/12/21 00:17:40;;;;;;;7.57;1.10;;;7.70;99.90;;;;;;4918170;29;20245;-76
2020/12/21 00:20:07;;;;;;;2.27;0.93;;;7.60;99.90;;;;;;4918212;29;20218;-77
2020/12/21 00:22:33;;;;;;;3.63;0.87;;;7.70;99.90;;;;;;4918106;29;20213;-77
2020/12/21 00:24:59;;;;;;;2.83;0.73;;;7.70;99.90;;;;;;4918121;29;20272;-77
2020/12/21 00:27:26;;;;;;;1.37;0.70;;;7.70;99.90;;;;;;4917956;29;20233;-76
2020/12/21 00:29:53;;;;;;;6.37;1.03;;;7.70;99.90;;;;;;4918058;29;20206;-77
2020/12/21 00:32:19;;;;;;;2.60;0.90;;;7.70;99.90;;;;;;4918013;29;20217;-77
2020/12/21 00:34:45;;;;;;;3.80;0.97;;;7.70;99.90;;;;;;4917803;29;20238;-77
2020/12/21 00:37:11;;;;;;;6.97;1.00;;;7.70;99.90;;;;;;4917537;29;20225;-77
2020/12/21 00:39:38;;;;;;;2.33;0.87;;;7.70;99.90;;;;;;4918073;29;20211;-77
2020/12/21 00:42:04;;;;;;;1.27;0.77;;;7.70;99.90;;;;;;4917969;29;20209;-77
2020/12/21 00:44:31;;;;;;;3.03;0.70;;;7.70;99.90;;;;;;4917620;29;20221;-75
2020/12/21 00:46:58;;;;;;;2.13;0.70;;;7.70;99.90;;;;;;4917481;29;20244;-76
2020/12/21 00:49:24;;;;;;;5.03;0.70;;;7.70;99.90;;;;;;4918082;29;20206;-76
2020/12/21 00:51:50;;;;;;;3.47;0.70;;;7.70;99.90;;;;;;4916865;29;20214;-77
2020/12/21 00:54:16;;;;;;;1.23;0.63;;;7.70;99.90;;;;;;4917728;29;20233;-76
2020/12/21 00:56:43;;;;;;;3.83;0.90;;;7.60;99.90;;;;;;4917483;29;20304;-76
2020/12/21 00:59:09;;;;;;;1.67;1.03;;;7.60;99.90;;;;;;4917529;29;20213;-76
2020/12/21 01:01:35;;;;;;;9.00;1.00;;;7.60;99.90;;;;;;4917505;29;20214;-77
2020/12/21 01:04:04;;;;;;;5.07;0.70;;;7.60;99.90;;;;;;4917328;29;20672;-77
2020/12/21 01:06:31;;;;;;;1.73;0.60;;;7.60;99.90;;;;;;4917171;29;20229;-77
2020/12/21 01:08:58;;;;;;;2.73;0.80;;;7.40;99.90;;;;;;4917531;29;20210;-76
2020/12/21 01:11:25;;;;;;;3.77;1.00;;;7.50;99.90;;;;;;4917366;29;20205;-76
2020/12/21 01:13:51;;;;;;;3.90;1.20;;;7.30;99.90;;;;;;4917396;29;20233;-76
2020/12/21 01:16:21;;;;;;;5.00;1.20;;;7.10;99.90;;;;;;4917058;29;20217;-76
2020/12/21 01:18:47;;;;;;;7.23;0.83;;;7.10;99.90;;;;;;4917129;29;20220;-77
2020/12/21 01:21:22;;;;;;;5.00;1.07;;;7.20;99.90;;;;;;4916991;29;20210;-77
2020/12/21 01:23:49;;;;;;;2.17;0.80;;;7.30;99.90;;;;;;4917104;29;20284;-76
2020/12/21 01:26:15;;;;;;;2.83;1.10;;;7.30;99.90;;;;;;4917192;29;20205;-76
2020/12/21 01:28:42;;;;;;;2.87;0.90;;;7.30;99.90;;;;;;4917108;29;20205;-76
2020/12/21 01:31:08;;;;;;;2.23;0.80;;;7.30;99.90;;;;;;4917079;29;20427;-77
2020/12/21 01:33:34;;;;;;;2.07;0.87;;;7.20;99.90;;;;;;4916810;29;20233;-75
2020/12/21 01:36:00;;;;;;;2.47;1.23;;;7.20;99.90;;;;;;4916905;29;20609;-77
2020/12/21 01:38:27;;;;;;;2.10;0.70;;;7.30;99.90;;;;;;4916932;29;20221;-73
2020/12/21 01:40:53;;;;;;;4.50;0.77;;;7.30;99.90;;;;;;4916741;29;20212;-75
2020/12/21 01:43:19;;;;;;;4.23;0.90;;;7.30;99.90;;;;;;4916818;29;20622;-75
2020/12/21 01:45:46;;;;;;;3.97;0.80;;;7.20;99.90;;;;;;4917013;29;20210;-75
2020/12/21 01:48:12;;;;;;;1.73;0.73;;;7.20;99.90;;;;;;4916407;29;20566;-74
2020/12/21 01:50:38;;;;;;;3.40;0.80;;;7.20;99.90;;;;;;4916884;29;20669;-75
2020/12/21 01:53:09;;;;;;;2.97;1.07;;;7.20;99.90;;;;;;4916667;29;20673;-75
2020/12/21 01:55:38;;;;;;;1.50;0.70;;;7.10;99.90;;;;;;4916846;29;20688;-75
2020/12/21 01:58:05;;;;;;;4.80;0.90;;;7.10;99.90;;;;;;4916735;29;20278;-75
2020/12/21 02:00:32;;;;;;;2.40;0.83;;;7.10;99.90;;;;;;4916538;29;20213;-75
2020/12/21 02:02:58;;;;;;;2.10;0.60;;;7.00;99.90;;;;;;4918590;29;20293;-75
2020/12/21 02:05:25;;;;;;;4.53;1.27;;;7.10;99.90;;;;;;4920653;29;20265;-75
2020/12/21 02:07:51;;;;;;;3.03;0.90;;;7.20;99.90;;;;;;4920588;29;20296;-75
2020/12/21 02:10:18;;;;;;;4.10;1.10;;;7.20;99.90;;;;;;4920242;29;20625;-76
2020/12/21 02:12:45;;;;;;;2.47;0.67;;;7.20;99.90;;;;;;4920816;29;20296;-79
2020/12/21 02:15:11;;;;;;;2.60;0.70;;;7.10;99.90;;;;;;4920319;29;20233;-75
2020/12/21 02:17:38;;;;;;;1.33;0.77;;;7.10;99.90;;;;;;4920362;29;20229;-77
2020/12/21 02:20:04;;;;;;;1.90;0.80;;;7.10;99.90;;;;;;4920648;29;20217;-74
2020/12/21 02:22:31;;;;;;;2.07;0.70;;;7.10;99.90;;;;;;4920341;29;20206;-76
2020/12/21 02:24:57;;;;;;;4.00;0.70;;;7.30;99.90;;;;;;4920331;29;20221;-75
2020/12/21 02:27:23;;;;;;;1.27;0.50;;;7.30;99.90;;;;;;4920199;29;20230;-76
2020/12/21 02:29:49;;;;;;;1.63;0.70;;;7.30;99.90;;;;;;4920062;29;20214;-76
2020/12/21 02:32:16;;;;;;;3.07;0.90;;;7.30;99.90;;;;;;4920364;29;20285;-75
2020/12/21 02:34:43;;;;;;;5.17;1.27;;;7.40;99.90;;;;;;4919901;29;20712;-74
2020/12/21 02:37:10;;;;;;;3.37;0.80;;;7.40;99.90;;;;;;4920044;29;20230;-74
2020/12/21 02:39:37;;;;;;;4.00;0.93;;;7.30;99.90;;;;;;4920269;29;20232;-76
2020/12/21 02:42:03;;;;;;;3.83;0.90;;;7.30;99.90;;;;;;4919777;29;20209;-75
2020/12/21 02:44:29;;;;;;;1.83;0.60;;;7.30;99.90;;;;;;4920201;29;20212;-76
2020/12/21 02:46:56;;;;;;;4.73;0.80;;;7.30;99.90;;;;;;4920393;29;20238;-75
2020/12/21 02:49:22;;;;;;;3.60;0.80;;;7.30;99.90;;;;;;4919895;29;20708;-76
2020/12/21 02:51:52;;;;;;;4.17;0.80;;;7.30;99.90;;;;;;4919868;29;20213;-76
2020/12/21 02:54:19;;;;;;;2.87;1.27;;;7.30;99.90;;;;;;4919695;29;20261;-76
2020/12/21 02:56:51;;;;;;;3.43;0.90;;;7.30;99.90;;;;;;4919617;29;20597;-76
2020/12/21 02:59:18;;;;;;;2.53;0.90;;;7.30;99.90;;;;;;4919985;29;20224;-75
2020/12/21 03:01:44;;;;;;;4.00;1.17;;;7.30;99.90;;;;;;4919511;29;20221;-75
2020/12/21 03:04:10;;;;;;;9.17;1.00;;;7.30;99.90;;;;;;4919510;29;20288;-74
2020/12/21 03:06:36;;;;;;;2.17;0.80;;;7.30;99.90;;;;;;4919295;29;20225;-75
2020/12/21 03:09:03;;;;;;;1.77;0.73;;;7.20;99.90;;;;;;4919504;29;20206;-75
2020/12/21 03:11:29;;;;;;;1.73;0.70;;;7.20;99.90;;;;;;4919358;29;20214;-75
2020/12/21 03:13:56;;;;;;;4.73;1.60;;;7.10;99.90;;;;;;4919337;29;20233;-76
2020/12/21 03:16:23;;;;;;;5.13;1.07;;;7.10;99.90;;;;;;4919267;29;20775;-76
2020/12/21 03:18:49;;;;;;;2.87;0.83;;;7.10;99.90;;;;;;4919368;29;20217;-76
2020/12/21 03:21:15;;;;;;;3.67;0.77;;;7.20;99.90;;;;;;4919146;29;20220;-76
2020/12/21 03:23:42;;;;;;;4.27;0.80;;;7.20;99.90;;;;;;4919041;29;20221;-75
2020/12/21 03:26:08;;;;;;;1.47;0.73;;;7.30;99.90;;;;;;4918967;29;20217;-76
2020/12/21 03:28:34;;;;;;;2.87;1.07;;;7.30;99.90;;;;;;4919258;29;20220;-76
2020/12/21 03:31:01;;;;;;;1.13;0.70;;;7.30;99.90;;;;;;4919056;29;20213;-76
2020/12/21 03:33:28;;;;;;;4.50;1.20;;;7.30;99.90;;;;;;4918959;29;20213;-76
2020/12/21 03:35:54;;;;;;;7.50;0.87;;;7.30;99.90;;;;;;4918923;29;20213;-75
2020/12/21 03:38:20;;;;;;;1.87;0.83;;;7.30;99.90;;;;;;4918876;29;20245;-75
2020/12/21 03:40:46;;;;;;;2.03;1.10;;;7.40;99.90;;;;;;4918832;29;20241;-75
2020/12/21 03:43:13;;;;;;;2.27;0.90;;;7.40;99.90;;;;;;4918967;29;20261;-75
2020/12/21 03:45:40;;;;;;;3.23;0.80;;;7.40;99.90;;;;;;4918934;29;20684;-76
2020/12/21 03:48:07;;;;;;;1.67;1.00;;;7.40;99.90;;;;;;4918582;29;20269;-76
2020/12/21 03:50:33;;;;;;;2.70;1.20;;;7.40;99.90;;;;;;4918862;29;20217;-76
2020/12/21 03:52:59;;;;;;;3.80;1.00;;;7.40;99.90;;;;;;4918720;29;20228;-75
2020/12/21 03:55:25;;;;;;;4.83;1.10;;;7.40;99.90;;;;;;4918376;29;20233;-76
2020/12/21 03:57:51;;;;;;;4.63;0.90;;;7.50;99.90;;;;;;4918592;29;20277;-76
2020/12/21 04:00:18;;;;;;;8.40;1.00;;;7.50;99.90;;;;;;4918438;29;20221;-76
2020/12/21 04:02:44;;;;;;;5.33;1.10;;;7.50;99.90;;;;;;4918633;29;20210;-76
2020/12/21 04:05:11;;;;;;;3.63;0.93;;;7.50;99.90;;;;;;4918510;29;20218;-75
2020/12/21 04:07:38;;;;;;;5.43;1.00;;;7.40;99.90;;;;;;4918098;29;20230;-76
2020/12/21 04:10:05;;;;;;;4.73;0.80;;;7.40;99.90;;;;;;4918192;29;20578;-76
2020/12/21 04:12:31;;;;;;;3.10;0.80;;;7.50;99.90;;;;;;4918376;29;20210;-75
2020/12/21 04:14:58;;;;;;;5.83;1.20;;;7.50;99.90;;;;;;4918125;29;20249;-76
2020/12/21 04:17:24;;;;;;;2.87;1.13;;;7.60;99.90;;;;;;4918363;29;20234;-75
2020/12/21 04:19:50;;;;;;;1.00;0.73;;;7.60;99.90;;;;;;4918154;29;20265;-75
2020/12/21 04:22:17;;;;;;;3.37;0.90;;;7.60;99.90;;;;;;4917961;29;20218;-76
2020/12/21 04:24:43;;;;;;;3.67;1.43;;;7.60;99.90;;;;;;4917775;29;20209;-76
2020/12/21 04:27:10;;;;;;;2.97;1.23;;;7.60;99.90;;;;;;4917930;29;20701;-75
2020/12/21 04:29:36;;;;;;;4.93;1.40;;;7.60;99.90;;;;;;4917907;29;20588;-76
2020/12/21 04:32:02;;;;;;;5.30;1.37;;;7.60;99.90;;;;;;4918027;29;20206;-76
2020/12/21 04:34:29;;;;;;;3.90;1.17;;;7.60;99.90;;;;;;4917904;29;20241;-76
2020/12/21 04:36:55;;;;;;;4.73;1.40;;;7.60;99.90;;;;;;4917629;29;20593;-75
2020/12/21 04:39:22;;;;;;;1.60;1.00;;;7.60;99.90;;;;;;4917692;29;20209;-76
2020/12/21 04:41:52;;;;;;;2.73;1.00;;;7.60;99.90;;;;;;4918006;29;20213;-76
2020/12/21 04:44:20;;;;;;;4.10;1.57;;;7.60;99.90;;;;;;4918010;29;20225;-75
2020/12/21 04:46:47;;;;;;;9.10;1.43;;;7.60;99.90;;;;;;4917585;29;20277;-76
2020/12/21 04:49:15;;;;;;;5.50;1.30;;;7.70;99.90;;;;;;4917553;29;20240;-76
2020/12/21 04:51:44;;;;;;;5.83;1.30;;;7.70;99.90;;;;;;4917708;29;20622;-76
2020/12/21 04:54:10;;;;;;;5.50;1.20;;;7.70;99.90;;;;;;4917699;29;20724;-75
2020/12/21 04:56:37;;;;;;;4.37;1.20;;;7.80;99.90;;;;;;4917470;29;20232;-75
2020/12/21 04:59:04;;;;;;;2.73;1.00;;;7.70;99.90;;;;;;4917537;29;20245;-76
2020/12/21 05:01:30;;;;;;;3.77;1.40;;;7.70;99.90;;;;;;4917406;29;20214;-76
2020/12/21 05:03:57;;;;;;;2.90;1.20;;;7.70;99.90;;;;;;4917320;29;20229;-76
2020/12/21 05:06:23;;;;;;;3.70;1.20;;;7.70;99.90;;;;;;4917409;29;20233;-76
2020/12/21 05:09:00;;;;;;;5.77;1.33;;;7.60;99.90;;;;;;4917403;29;20213;-74
2020/12/21 05:11:27;;;;;;;2.30;0.90;;;7.70;99.90;;;;;;4917319;29;20696;-75
2020/12/21 05:14:05;;;;;;;5.53;1.57;;;7.70;99.90;;;;;;4917102;29;20237;-75
2020/12/21 05:16:31;;;;;;;4.17;1.40;;;7.70;99.90;;;;;;4917180;29;20310;-76
2020/12/21 05:18:57;;;;;;;6.97;1.37;;;7.70;99.90;;;;;;4917539;29;20214;-76
2020/12/21 05:21:27;;;;;;;6.80;1.80;;;7.80;99.90;;;;;;4916985;29;20213;-76
2020/12/21 05:23:57;;;;;;;6.17;1.60;;;7.90;99.90;;;;;;4917180;29;20256;-76
2020/12/21 05:26:28;;;;;;;3.60;1.47;;;7.90;99.90;;;;;;4916651;29;20229;-76
2020/12/21 05:28:55;;;;;;;4.03;1.67;;;7.90;99.90;;;;;;4916868;29;20217;-76
2020/12/21 05:31:21;;;;;;;2.70;1.30;;;7.90;99.90;;;;;;4916854;29;20565;-77
2020/12/21 05:33:48;;;;;;;8.40;1.30;;;8.00;99.90;;;;;;4917128;29;20212;-76
2020/12/21 05:36:16;;;;;;;4.83;1.50;;;8.00;99.90;;;;;;4916552;29;20677;-76
2020/12/21 05:38:44;;;;;;;6.73;1.50;;;8.00;99.90;;;;;;4917038;29;20258;-76
2020/12/21 05:41:12;;;;;;;2.70;1.50;;;8.00;99.90;;;;;;4916908;29;20668;-76
2020/12/21 05:43:40;;;;;;;3.37;1.47;;;8.10;99.90;;;;;;4916878;29;20220;-76
2020/12/21 05:46:12;;;;;;;4.40;1.50;;;8.10;99.90;;;;;;4916905;29;20220;-76
2020/12/21 05:48:40;;;;;;;4.93;1.53;;;8.10;99.90;;;;;;4916408;29;20276;-76
2020/12/21 05:51:08;;;;;;;3.10;1.53;;;8.10;99.90;;;;;;4916839;29;20673;-77
2020/12/21 05:53:40;;;;;;;4.37;1.47;;;8.10;99.90;;;;;;4916654;29;20205;-75
2020/12/21 05:56:06;;;;;;;4.00;1.37;;;8.10;99.90;;;;;;4916750;29;20292;-76
2020/12/21 05:58:34;;;;;;;5.63;1.17;;;8.20;99.90;;;;;;4917139;29;20227;-76
2020/12/21 06:01:02;;;;;;;3.63;1.53;;;8.20;99.90;;;;;;4916941;29;20213;-74
2020/12/21 06:03:39;;;;;;;4.33;1.70;;;8.30;99.90;;;;;;4916747;29;20218;-76
2020/12/21 06:06:11;;;;;;;5.87;1.30;;;8.30;99.90;;;;;;4916593;29;20220;-75
2020/12/21 06:08:38;;;;;;;5.60;1.40;;;8.30;99.90;;;;;;4916825;29;20666;-76
2020/12/21 06:11:19;;;;;;;3.10;1.50;;;8.40;99.90;;;;;;4916553;29;20677;-77
2020/12/21 06:13:51;;;;;;;3.10;2.20;;;8.40;99.90;;;;;;4916801;29;20209;-76
2020/12/21 06:16:19;;;;;;;3.93;1.27;;;8.50;99.90;;;;;;4916469;29;20218;-76
2020/12/21 06:19:00;;;;;;;2.33;1.17;;;8.50;99.90;;;;;;4916523;29;20573;-76
2020/12/21 06:21:30;;;;;;;3.33;1.30;;;8.60;99.90;;;;;;4916236;29;20610;-76
2020/12/21 06:23:57;;;;;;;1.90;1.30;;;8.70;99.90;;;;;;4916463;29;20578;-76
2020/12/21 06:26:32;;;;;;;2.23;1.43;;;8.70;99.90;;;;;;4916467;29;20230;-76
2020/12/21 06:29:00;;;;;;;5.33;1.53;;;8.70;99.90;;;;;;4916486;29;20237;-75
2020/12/21 06:31:37;;;;;;;4.10;1.40;;;8.70;99.90;;;;;;4916378;29;20708;-76
2020/12/21 06:34:05;;;;;;;4.20;1.27;;;8.70;99.90;;;;;;4916551;29;20288;-76
2020/12/21 06:36:31;;;;;;;2.13;1.20;;;8.70;99.90;;;;;;4916055;29;20229;-75
2020/12/21 06:38:58;;;;;;;3.60;1.53;;;8.70;99.90;;;;;;4916030;29;20740;-76
2020/12/21 06:41:26;;;;;;;2.70;1.03;;;8.80;99.90;;;;;;4916333;29;20213;-76
2020/12/21 06:43:57;;;;;;;2.13;1.10;;;8.80;99.90;;;;;;4916091;29;20214;-75
2020/12/21 06:46:23;;;;;;;6.60;1.40;;;8.80;99.90;;;;;;4916334;29;20257;-77
2020/12/21 06:49:08;;;;;;;4.70;1.00;;;8.90;99.90;;;;;;4917554;29;20558;-77
2020/12/21 06:51:36;;;;;;;4.33;1.43;;;8.80;99.90;;;;;;4919569;29;20678;-76
2020/12/21 06:54:04;;;;;;;2.53;1.37;;;8.80;99.90;;;;;;4919724;29;20720;-76
2020/12/21 06:56:30;;;;;;;3.03;1.00;;;8.90;99.90;;;;;;4919608;29;20241;-76
2020/12/21 06:58:57;;;;;;;4.17;1.20;;;9.00;99.90;;;;;;4919858;29;20216;-75
2020/12/21 07:01:26;;;;;;;1.97;1.07;;;9.00;99.90;;;;;;4919461;29;20214;-76
2020/12/21 07:03:53;;;;;;;3.03;1.20;;;9.00;99.90;;;;;;4919397;29;20671;-76
2020/12/21 07:06:20;;;;;;;7.03;1.50;;;9.00;99.90;;;;;;4919379;29;20206;-76
2020/12/21 07:08:49;;;;;;;1.47;0.97;;;9.00;99.90;;;;;;4919422;29;20217;-76
2020/12/21 07:11:17;;;;;;;3.63;0.93;;;9.00;99.90;;;;;;4919494;29;20209;-76
2020/12/21 07:13:44;;;;;;;2.37;1.20;;;9.10;99.90;;;;;;4919324;29;20210;-76
2020/12/21 07:16:11;;;;;;;2.87;1.10;;;9.10;99.90;;;;;;4919463;29;20213;-77
2020/12/21 07:18:37;;;;;;;1.80;1.10;;;9.10;99.90;;;;;;4919556;29;20218;-76
2020/12/21 07:21:07;;;;;;;4.63;1.03;;;9.10;99.90;;;;;;4919262;29;20609;-76
2020/12/21 07:23:34;;;;;;;2.17;0.97;;;9.00;99.90;;;;;;4919331;29;20290;-76
2020/12/21 07:26:01;;;;;;;3.00;1.10;;;9.00;99.90;;;;;;4919613;29;20216;-76
2020/12/21 07:28:28;;;;;;;3.70;0.93;;;9.00;99.90;;;;;;4919121;29;20206;-76
2020/12/21 07:31:04;;;;;;;3.60;1.20;;;9.00;99.90;;;;;;4919075;29;20209;-76
2020/12/21 07:33:30;;;;;;;4.57;1.30;;;9.10;99.90;;;;;;4918894;29;20248;-77
2020/12/21 07:35:57;;;;;;;5.50;1.00;;;9.20;99.90;;;;;;4918640;29;20300;-75
2020/12/21 07:38:24;;;;;;;3.90;1.00;;;9.10;99.90;;;;;;4919176;29;20230;-76
2020/12/21 07:40:52;;;;;;;2.23;1.13;;;9.10;99.90;;;;;;4919063;29;20257;-76
2020/12/21 07:43:23;;;;;;;2.17;1.37;;;9.10;99.90;;;;;;4918959;29;20265;-76
2020/12/21 07:45:52;;;;;;;1.83;0.87;;;9.00;99.90;;;;;;4918915;29;20225;-76
2020/12/21 07:48:18;;;;;;;2.30;1.23;;;9.00;99.90;;;;;;4918810;29;20253;-75
2020/12/21 07:50:47;;;;;;;6.13;1.33;;;9.00;99.90;;;;;;4918587;29;20214;-77
2020/12/21 07:53:14;;;;;;;3.60;0.97;;;9.00;99.90;;;;;;4918820;29;20209;-76
2020/12/21 07:55:40;;;;;;;1.37;0.90;;;9.00;99.90;;;;;;4918852;29;20275;-76
2020/12/21 07:58:16;;;;;;;5.27;1.10;;;9.00;99.90;;;;;;4918487;29;20698;-76
2020/12/21 08:00:55;;;;;;;1.40;0.90;;;9.00;99.90;;;;;;4917580;29;20676;-76
2020/12/21 08:03:23;;;;;;;5.20;1.10;;;9.00;99.90;;;;;;4918656;29;20209;-76
2020/12/21 08:05:50;;;;;;;1.80;1.00;;;9.00;99.90;;;;;;4918366;29;20229;-76
2020/12/21 08:08:22;;;;;;;1.60;1.20;;;9.00;99.90;;;;;;4918116;29;20233;-73
2020/12/21 08:10:55;;;;;;;5.43;1.47;;;9.00;99.90;;;;;;4918001;29;20285;-77
2020/12/21 08:13:22;;;;;;;2.07;1.70;;;9.10;99.90;;;;;;4917696;29;20216;-77
2020/12/21 08:15:48;;;;;;;3.70;1.23;;;9.10;99.90;;;;;;4917866;29;20237;-77
2020/12/21 08:18:15;;;;;;;3.10;0.87;;;9.10;99.90;;;;;;4917764;29;20230;-77
2020/12/21 08:20:51;;;;;;;1.43;0.83;;;9.20;99.90;;;;;;4918831;29;20214;-76
2020/12/21 08:23:28;;;;;;;3.77;1.00;;;9.20;99.90;;;;;;4918224;29;20217;-77
2020/12/21 08:25:54;;;;;;;2.70;0.90;;;9.30;99.90;;;;;;4917485;29;20212;-76
2020/12/21 08:28:29;;;;;;;3.77;1.00;;;9.30;99.90;;;;;;4917844;29;20238;-77
2020/12/21 08:31:10;;;;;;;1.63;0.67;;;9.30;99.90;;;;;;4917626;29;20209;-76
2020/12/21 08:33:37;;;;;;;3.37;0.60;;;9.20;99.90;;;;;;4917445;29;20220;-78
2020/12/21 08:36:17;;;;;;;3.17;0.70;;;9.20;99.90;;;;;;4917453;29;20252;-76
2020/12/21 08:38:44;;;;;;;3.17;0.83;;;9.30;99.90;;;;;;4917925;29;20212;-78
2020/12/21 08:41:10;;;;;;;2.60;0.73;;;9.20;99.90;;;;;;4917727;29;20233;-79
2020/12/21 08:43:38;;;;;;;4.10;0.80;;;9.40;99.90;;;;;;4917758;29;20210;-76
2020/12/21 08:46:06;;;;;;;1.20;0.70;;;9.40;99.90;;;;;;4917327;29;20562;-78
2020/12/21 08:48:33;;;;;;;1.80;0.60;;;9.30;99.90;;;;;;4917166;29;20253;-79
2020/12/21 08:50:59;;;;;;;1.60;0.73;;;9.40;99.90;;;;;;4917891;29;20210;-78
2020/12/21 08:53:25;;;;;;;2.87;0.63;;;9.40;99.90;;;;;;4917167;29;20216;-77
2020/12/21 08:55:51;;;;;;;1.70;1.00;;;9.40;99.90;;;;;;4917316;29;20229;-73
2020/12/21 08:58:17;;;;;;;3.00;0.80;;;9.50;99.90;;;;;;4900773;29;20282;-76
2020/12/21 09:00:44;;;;;;;3.13;0.83;;;9.50;99.90;;;;;;4914102;29;20216;-76
2020/12/21 09:03:11;;;;;;;2.17;0.90;;;9.50;99.90;;;;;;4917296;29;20213;-73
2020/12/21 09:05:37;;;;;;;5.93;0.70;;;9.50;99.90;;;;;;4917141;29;20217;-76
2020/12/21 09:08:03;;;;;;;2.10;0.70;;;9.50;99.90;;;;;;4917265;29;20230;-75
2020/12/21 09:10:30;;;;;;;3.03;0.60;;;9.50;99.90;;;;;;4917207;29;20218;-75
2020/12/21 09:12:56;;;;;;;3.10;0.70;;;9.50;99.90;;;;;;4917040;29;20221;-73
2020/12/21 09:15:22;;;;;;;0.63;0.40;;;9.60;99.90;;;;;;4917170;29;20234;-76
2020/12/21 09:17:49;;;;;;;2.63;0.60;;;9.60;99.90;;;;;;4916976;29;20230;-78
2020/12/21 09:20:15;;;;;;;1.13;0.37;;;9.60;99.90;;;;;;4916851;29;20221;-79
2020/12/21 09:22:42;;;;;;;1.50;0.60;;;9.60;99.90;;;;;;4916751;29;20213;-77
2020/12/21 09:25:08;;;;;;;1.20;0.70;;;9.60;99.90;;;;;;4916676;29;20741;-79
2020/12/21 09:27:34;;;;;;;1.40;0.60;;;9.60;99.90;;;;;;4917050;29;20232;-78
2020/12/21 09:30:00;;;;;;;1.57;0.60;;;9.60;99.90;;;;;;4917014;29;20216;-73
2020/12/21 09:32:26;;;;;;;1.17;0.60;;;9.70;99.90;;;;;;4916847;29;20665;-75
2020/12/21 09:34:53;;;;;;;1.17;0.50;;;9.60;99.90;;;;;;4916868;29;20241;-76
2020/12/21 09:37:20;;;;;;;1.33;0.70;;;9.60;99.90;;;;;;4916948;29;20280;-77
2020/12/21 09:39:46;;;;;;;0.80;0.57;;;9.70;99.90;;;;;;4917284;29;20201;-77
2020/12/21 09:42:12;;;;;;;1.77;0.70;;;9.80;99.90;;;;;;4916889;29;20719;-76
2020/12/21 09:44:38;;;;;;;3.97;0.70;;;9.80;99.90;;;;;;4916949;29;20220;-76
2020/12/21 09:47:04;;;;;;;1.70;0.70;;;9.80;99.90;;;;;;4916982;29;20712;-77
2020/12/21 09:49:30;;;;;;;1.73;0.67;;;9.80;99.90;;;;;;4917049;29;20273;-76
2020/12/21 09:51:57;;;;;;;0.73;0.40;;;9.80;99.90;;;;;;4916942;29;20210;-77
2020/12/21 09:54:24;;;;;;;4.13;0.70;;;9.80;99.90;;;;;;4909587;29;20661;-69
2020/12/21 09:56:50;;;;;;;1.07;0.63;;;9.80;99.90;;;;;;4914808;29;20252;-73
2020/12/21 09:59:17;;;;;;;1.30;0.53;;;9.80;99.90;;;;;;4915597;29;20212;-76
2020/12/21 10:01:43;;;;;;;1.37;0.43;;;9.80;99.90;;;;;;4913655;29;20221;-74
2020/12/21 10:04:09;;;;;;;2.17;0.60;;;9.80;99.90;;;;;;4914582;29;20221;-73
2020/12/21 10:06:36;;;;;;;0.83;0.50;;;9.90;99.90;;;;;;4915290;29;20308;-72
2020/12/21 10:09:03;;;;;;;0.90;0.40;;;9.90;99.90;;;;;;4914139;29;20826;-72
2020/12/21 10:11:29;;;;;;;0.70;0.40;;;9.80;99.90;;;;;;4915353;29;20332;-82
2020/12/21 10:13:55;;;;;;;2.03;0.47;;;9.80;99.90;;;;;;4915075;29;20281;-73
2020/12/21 10:16:22;;;;;;;1.10;0.50;;;9.80;99.90;;;;;;4913864;29;20249;-78
2020/12/21 10:18:48;;;;;;;0.70;0.50;;;9.80;99.90;;;;;;4914935;29;20222;-74
2020/12/21 10:21:14;;;;;;;2.87;0.40;;;9.80;99.90;;;;;;4915132;29;20216;-72
2020/12/21 10:23:40;;;;;;;0.80;0.40;;;9.70;99.90;;;;;;4915797;29;20217;-72
2020/12/21 10:26:07;;;;;;;0.73;0.40;;;9.70;99.90;;;;;;4898204;29;20225;-70
2020/12/21 10:28:34;;;;;;;1.60;0.40;;;9.80;99.90;;;;;;4899707;29;20578;-81
2020/12/21 10:31:01;;;;;;;0.50;0.30;;;9.80;99.90;;;;;;4899220;29;20650;-73
2020/12/21 10:33:28;;;;;;;0.57;0.40;;;9.70;99.90;;;;;;4899267;29;20301;-77
2020/12/21 10:35:54;;;;;;;0.50;0.30;;;9.70;99.90;;;;;;4915259;29;20233;-73
2020/12/21 10:38:20;;;;;;;1.30;0.47;;;9.60;99.90;;;;;;4917927;29;20257;-72
2020/12/21 10:40:46;;;;;;;0.90;0.33;;;9.50;99.90;;;;;;4917639;29;20217;-69
2020/12/21 10:43:13;;;;;;;1.47;0.40;;;9.50;99.90;;;;;;4909608;29;20607;-75
2020/12/21 10:45:40;;;;;;;0.97;0.30;;;9.50;99.90;;;;;;4913322;29;20217;-69
2020/12/21 10:48:06;;;;;;;1.07;0.40;;;9.50;99.90;;;;;;4917224;29;20242;-69
2020/12/21 10:50:33;;;;;;;0.97;0.30;;;9.60;99.90;;;;;;4918309;29;20210;-77
2020/12/21 10:52:59;;;;;;;2.00;0.60;;;9.60;99.90;;;;;;4911494;29;20217;-76
2020/12/21 10:55:25;;;;;;;1.10;0.53;;;9.60;99.90;;;;;;4917025;29;20237;-70
2020/12/21 10:57:51;;;;;;;0.83;0.43;;;9.60;99.90;;;;;;4917672;29;20637;-72
2020/12/21 11:00:18;;;;;;;0.57;0.20;;;9.60;99.90;;;;;;4918145;29;20220;-72
2020/12/21 11:02:44;;;;;;;0.73;0.40;;;9.70;99.90;;;;;;4917433;29;20216;-76
2020/12/21 11:05:11;;;;;;;0.40;0.30;;;9.70;99.90;;;;;;4918071;29;20572;-73
2020/12/21 11:07:37;;;;;;;0.37;0.23;;;9.80;99.90;;;;;;4917983;29;20297;-81
2020/12/21 11:10:08;;;;;;;2.10;0.30;;;9.70;99.90;;;;;;4916972;29;20625;-79
2020/12/21 11:12:34;;;;;;;1.03;0.30;;;9.60;99.90;;;;;;4917857;29;20233;-75
2020/12/21 11:15:01;;;;;;;0.50;0.30;;;9.60;99.90;;;;;;4917945;29;20269;-77
2020/12/21 11:17:28;;;;;;;1.23;0.40;;;9.50;99.90;;;;;;4916817;29;20242;-76
2020/12/21 11:19:54;;;;;;;1.03;0.40;;;9.60;99.90;;;;;;4913004;29;20212;-71
2020/12/21 11:22:20;;;;;;;0.60;0.20;;;9.60;99.90;;;;;;4918152;29;20240;-72
2020/12/21 11:24:47;;;;;;;0.40;0.20;;;9.60;99.90;;;;;;4916630;29;20206;-68
2020/12/21 11:27:15;;;;;;;0.70;0.20;;;9.60;99.90;;;;;;4917821;29;20288;-79
2020/12/21 11:29:42;;;;;;;0.30;0.20;;;9.60;99.90;;;;;;4917710;29;20269;-70
2020/12/21 11:32:08;;;;;;;4.83;0.63;;;9.60;99.90;;;;;;4916362;29;20205;-79
2020/12/21 11:34:35;;;;;;;0.20;0.20;;;9.60;99.90;;;;;;4916648;29;20229;-67
2020/12/21 11:37:01;;;;;;;0.60;0.30;;;9.50;99.90;;;;;;4917044;29;20732;-70
2020/12/21 11:39:27;;;;;;;0.97;0.30;;;9.50;99.90;;;;;;4916823;29;20211;-79
2020/12/21 11:41:53;;;;;;;0.90;0.30;;;9.60;99.90;;;;;;4917390;29;20213;-79
2020/12/21 11:44:20;;;;;;;3.63;0.50;;;9.60;99.90;;;;;;4917231;29;20245;-72
2020/12/21 11:46:46;;;;;;;0.70;0.40;;;9.60;99.90;;;;;;4913456;29;20249;-69
2020/12/21 11:49:13;;;;;;;0.47;0.20;;;9.60;99.90;;;;;;4914409;29;20213;-81
2020/12/21 11:51:40;;;;;;;0.80;0.20;;;9.60;99.90;;;;;;4916941;29;20220;-79
2020/12/21 11:54:06;;;;;;;0.80;0.30;;;9.70;99.90;;;;;;4916241;29;20222;-72
2020/12/21 11:56:32;;;;;;;1.53;0.40;;;9.70;99.90;;;;;;4917080;29;20249;-68
2020/12/21 11:58:58;;;;;;;1.07;0.20;;;9.70;99.90;;;;;;4917173;29;20210;-81
2020/12/21 12:01:24;;;;;;;0.67;0.20;;;9.70;99.90;;;;;;4915474;29;20543;-74
2020/12/21 12:03:51;;;;;;;1.70;0.20;;;9.60;99.90;;;;;;4914226;29;20269;-80
2020/12/21 12:06:24;;;;;;;0.50;0.20;;;9.60;99.90;;;;;;4917205;29;20316;-79
2020/12/21 12:08:53;;;;;;;0.80;0.40;;;9.60;99.90;;;;;;4916528;29;20273;-76
2020/12/21 12:11:21;;;;;;;0.37;0.20;;;9.50;99.90;;;;;;4917559;29;20220;-73
2020/12/21 12:13:48;;;;;;;0.67;0.20;;;9.40;99.90;;;;;;4917297;29;20361;-77
2020/12/21 12:16:19;;;;;;;2.17;0.30;;;9.40;99.90;;;;;;4915453;29;20249;-69
2020/12/21 12:18:45;;;;;;;0.47;0.20;;;9.40;99.90;;;;;;4917266;29;20297;-82
2020/12/21 12:21:12;;;;;;;2.53;0.30;;;9.30;99.90;;;;;;4917145;29;20209;-74
2020/12/21 12:23:38;;;;;;;0.47;0.30;;;9.30;99.90;;;;;;4917768;29;20210;-72
2020/12/21 12:26:05;;;;;;;0.30;0.20;;;9.30;99.90;;;;;;4918294;29;20218;-71
2020/12/21 12:28:31;;;;;;;1.03;0.20;;;9.30;99.90;;;;;;4918283;29;20212;-71
2020/12/21 12:30:58;;;;;;;0.60;0.20;;;9.20;99.90;;;;;;4917934;29;20665;-71
2020/12/21 12:33:24;;;;;;;0.57;0.40;;;9.20;99.90;;;;;;4918032;29;20295;-71
2020/12/21 12:35:50;;;;;;;0.47;0.37;;;9.20;99.90;;;;;;4917797;29;20268;-71
2020/12/21 12:38:16;;;;;;;2.93;0.30;;;9.10;99.90;;;;;;4918086;29;20229;-72
2020/12/21 12:40:42;;;;;;;0.50;0.27;;;9.10;99.90;;;;;;4917909;29;20213;-71
2020/12/21 12:43:09;;;;;;;1.07;0.60;;;9.10;99.90;;;;;;4917999;29;20214;-71
2020/12/21 12:45:35;;;;;;;1.37;0.97;;;9.10;99.90;;;;;;4917598;29;20668;-72
2020/12/21 12:48:02;;;;;;;0.90;0.30;;;9.10;99.90;;;;;;4917330;29;20237;-71
2020/12/21 12:50:28;;;;;;;1.63;0.60;;;9.10;99.90;;;;;;4917562;29;20218;-71
2020/12/21 12:52:55;;;;;;;0.57;0.27;;;9.20;99.90;;;;;;4915148;29;20265;-71
2020/12/21 12:55:21;;;;;;;0.60;0.50;;;9.20;99.90;;;;;;4916900;29;20592;-71
2020/12/21 12:57:47;;;;;;;2.87;0.50;;;9.20;99.90;;;;;;4917160;29;20229;-70